CMB821 Details

Departure: Patrick Air Force Base (KCOF)
Arrival: Joint Base McGuire Dix Lakehurst (KWRI) at N/A
Route: APOLO ETECK AR18 DIW J174 SWL J121 SIE V44 PANZE V184 ZIGGI
Notes: USTRANSCOM CONTRACT FLIGHT


Current Weather Information
KCOF 250456Z AUTO 01004KT 10SM CLR 27/25 A2995 RMK AO2 SLP147 T02730251 403090263 $
KWRI 250456Z AUTO 04003KT 10SM CLR 15/13 A3023 RMK AO2 SLP236 T01460128 402600140 $